Time;durP1;ratioP1;P1;durP2;ratioP2;P2;SDS_P1;SDS_P2;PMS_P1;PMS_P2;Temp;Humidity;BMP_temperature;BMP_pressure;BME280_temperature;BME280_humidity;BME280_pressure;Samples;Min_cycle;Max_cycle;Signal;HPM_P1;HPM_P2
2022/05/22 00:01:56;;;;;;;17.60;16.90;;;16.20;40.50;;;;;;5009249;28;20610;-87
2022/05/22 00:04:22;;;;;;;17.20;16.60;;;16.10;40.80;;;;;;5008805;28;20425;-87
2022/05/22 00:06:48;;;;;;;17.97;17.20;;;16.10;40.80;;;;;;5009077;28;20504;-87
2022/05/22 00:09:14;;;;;;;17.13;16.43;;;16.00;40.60;;;;;;5009164;28;20480;-86
2022/05/22 00:11:40;;;;;;;17.00;16.40;;;16.00;41.20;;;;;;4993966;28;20402;-86
2022/05/22 00:14:06;;;;;;;18.23;17.50;;;16.00;41.50;;;;;;5008955;28;20416;-87
2022/05/22 00:16:40;;;;;;;19.70;18.50;;;16.10;41.60;;;;;;5009077;28;20642;-87
2022/05/22 00:19:33;;;;;;;18.50;17.80;;;16.00;41.90;;;;;;5009177;28;20447;-87
2022/05/22 00:22:00;;;;;;;19.30;18.40;;;16.00;41.50;;;;;;5009335;28;20821;-87
2022/05/22 00:24:29;;;;;;;18.60;17.80;;;16.00;41.70;;;;;;5008580;28;20409;-86
2022/05/22 00:26:56;;;;;;;18.07;17.37;;;16.00;41.70;;;;;;5008868;28;20441;-87
2022/05/22 00:29:22;;;;;;;18.90;18.07;;;15.90;42.50;;;;;;5009238;28;20460;-87
2022/05/22 00:31:47;;;;;;;18.50;17.70;;;15.90;41.80;;;;;;5008965;28;20436;-87
2022/05/22 00:34:14;;;;;;;18.60;17.80;;;15.90;42.10;;;;;;5008475;28;20174;-87
2022/05/22 00:36:40;;;;;;;18.43;17.67;;;15.90;42.50;;;;;;5008645;28;20170;-86
2022/05/22 00:39:06;;;;;;;19.03;18.20;;;15.90;42.40;;;;;;5008752;28;20524;-87
2022/05/22 00:41:33;;;;;;;19.17;18.47;;;15.90;42.80;;;;;;5008850;28;20452;-86
2022/05/22 00:44:00;;;;;;;18.83;18.10;;;15.90;43.10;;;;;;5008778;28;20421;-86
2022/05/22 00:46:29;;;;;;;18.57;17.77;;;15.90;43.10;;;;;;5008147;28;20487;-86
2022/05/22 00:49:03;;;;;;;19.37;18.13;;;15.90;43.60;;;;;;5008534;28;20789;-86
2022/05/22 00:51:56;;;;;;;18.77;17.93;;;15.90;43.70;;;;;;5007963;28;20417;-87
2022/05/22 00:54:24;;;;;;;19.30;18.40;;;15.90;43.70;;;;;;5008180;28;20936;-87
2022/05/22 00:57:00;;;;;;;18.60;17.80;;;15.80;43.30;;;;;;4992303;28;20409;-87
2022/05/22 00:59:31;;;;;;;19.00;18.30;;;15.90;44.10;;;;;;5008235;28;20420;-87
2022/05/22 01:01:59;;;;;;;19.03;18.17;;;15.80;43.80;;;;;;5007961;28;20479;-87
2022/05/22 01:04:29;;;;;;;18.73;17.93;;;15.80;43.80;;;;;;4992607;28;20813;-86
2022/05/22 01:06:55;;;;;;;19.30;18.50;;;15.70;44.10;;;;;;5008185;28;20964;-86
2022/05/22 01:09:21;;;;;;;19.77;18.93;;;15.70;44.10;;;;;;5008108;28;21024;-86
2022/05/22 01:11:52;;;;;;;19.80;18.90;;;15.70;44.60;;;;;;5008448;28;20500;-86
2022/05/22 01:14:22;;;;;;;19.80;19.00;;;15.70;44.60;;;;;;5008063;28;20261;-86
2022/05/22 01:16:49;;;;;;;21.93;20.93;;;15.70;44.50;;;;;;5008494;28;20412;-86
2022/05/22 01:19:18;;;;;;;19.77;18.93;;;15.70;44.00;;;;;;5008315;28;20417;-86
2022/05/22 01:22:14;;;;;;;19.50;18.70;;;15.60;43.70;;;;;;5008122;28;20571;-86
2022/05/22 01:24:40;;;;;;;19.50;18.50;;;15.60;43.90;;;;;;5008306;28;20448;-86
2022/05/22 01:27:11;;;;;;;18.83;18.03;;;15.50;44.20;;;;;;5007646;28;20953;-86
2022/05/22 01:29:37;;;;;;;19.42;18.63;;;15.50;44.40;;;;;;5007372;28;20444;-87
2022/05/22 01:32:04;;;;;;;18.27;17.57;;;15.50;44.20;;;;;;5009059;28;20178;-86
2022/05/22 01:34:30;;;;;;;19.57;18.50;;;15.50;44.40;;;;;;5011472;28;20513;-87
2022/05/22 01:36:56;;;;;;;20.47;19.37;;;15.50;44.30;;;;;;5011768;28;20893;-86
2022/05/22 01:39:21;;;;;;;20.00;19.20;;;15.40;45.10;;;;;;5011808;28;20177;-87
2022/05/22 01:41:47;;;;;;;19.83;18.93;;;15.40;45.80;;;;;;5011723;28;20181;-86
2022/05/22 01:44:13;;;;;;;19.93;19.20;;;15.40;45.70;;;;;;5011937;28;20189;-87
2022/05/22 01:46:38;;;;;;;20.47;19.37;;;15.40;46.10;;;;;;5011537;28;20180;-86
2022/05/22 01:49:04;;;;;;;19.10;18.30;;;15.30;46.00;;;;;;5012279;28;20229;-83
2022/05/22 01:51:37;;;;;;;20.10;19.10;;;15.30;46.30;;;;;;5012236;28;20517;-87
2022/05/22 01:54:06;;;;;;;20.03;19.13;;;15.30;46.30;;;;;;5012027;28;20181;-83
2022/05/22 01:56:34;;;;;;;19.30;18.50;;;15.30;46.30;;;;;;5010825;28;20420;-83
2022/05/22 01:58:59;;;;;;;19.67;18.73;;;15.20;46.20;;;;;;5011202;28;20415;-83
2022/05/22 02:01:25;;;;;;;19.90;19.00;;;15.20;46.60;;;;;;5011158;28;20512;-83
2022/05/22 02:03:51;;;;;;;19.57;18.77;;;15.20;46.40;;;;;;5011231;28;20174;-83
2022/05/22 02:06:16;;;;;;;20.73;19.73;;;15.10;46.10;;;;;;5010883;28;20225;-83
2022/05/22 02:08:42;;;;;;;20.20;19.20;;;15.10;46.70;;;;;;5011225;28;20638;-83
2022/05/22 02:11:08;;;;;;;19.83;18.83;;;15.10;46.50;;;;;;5010242;28;20233;-83
2022/05/22 02:13:45;;;;;;;20.20;19.20;;;15.10;46.80;;;;;;5010821;28;20220;-83
2022/05/22 02:16:11;;;;;;;20.00;19.00;;;15.10;47.30;;;;;;5010793;28;20185;-83
2022/05/22 02:18:37;;;;;;;19.80;18.77;;;15.10;46.90;;;;;;5010942;28;20417;-83
2022/05/22 02:21:03;;;;;;;20.63;19.43;;;15.00;47.30;;;;;;5010991;28;20440;-83
2022/05/22 02:23:31;;;;;;;19.40;18.60;;;15.10;47.20;;;;;;5010126;28;20204;-83
2022/05/22 02:25:57;;;;;;;19.00;18.20;;;15.00;46.00;;;;;;5010443;28;20198;-83
2022/05/22 02:28:24;;;;;;;19.23;18.43;;;15.00;46.50;;;;;;4995701;28;20420;-83
2022/05/22 02:30:56;;;;;;;19.43;18.73;;;15.00;46.50;;;;;;5010604;28;20210;-83
2022/05/22 02:33:22;;;;;;;19.47;18.50;;;15.10;46.10;;;;;;5010401;28;20417;-83
2022/05/22 02:35:48;;;;;;;19.87;19.03;;;15.00;46.00;;;;;;5010274;28;20421;-83
2022/05/22 02:38:15;;;;;;;20.40;19.60;;;15.00;46.00;;;;;;5010611;28;20302;-83
2022/05/22 02:40:41;;;;;;;21.10;20.23;;;15.00;46.00;;;;;;5009923;28;20503;-83
2022/05/22 02:43:07;;;;;;;20.17;19.37;;;15.00;46.00;;;;;;5009589;28;20512;-82
2022/05/22 02:45:35;;;;;;;19.93;19.23;;;15.00;46.00;;;;;;5009612;28;20417;-83
2022/05/22 02:48:01;;;;;;;20.30;19.40;;;15.00;46.50;;;;;;4995615;28;20556;-83
2022/05/22 02:50:30;;;;;;;20.10;19.30;;;15.00;46.30;;;;;;5010297;28;20572;-83
2022/05/22 02:52:55;;;;;;;21.60;20.60;;;15.00;47.30;;;;;;5010178;28;20563;-83
2022/05/22 02:55:22;;;;;;;20.80;20.00;;;15.00;46.60;;;;;;5010065;28;20540;-83
2022/05/22 02:57:48;;;;;;;21.50;20.50;;;15.00;47.00;;;;;;5010350;28;20631;-83
2022/05/22 03:00:18;;;;;;;20.67;19.70;;;15.00;47.00;;;;;;4995162;28;20556;-83
2022/05/22 03:02:44;;;;;;;20.40;19.60;;;15.00;46.80;;;;;;5010320;28;20425;-83
2022/05/22 03:05:10;;;;;;;20.35;19.45;;;14.90;47.40;;;;;;5009565;28;20413;-83
2022/05/22 03:07:37;;;;;;;20.37;19.57;;;14.90;47.70;;;;;;5010175;28;20630;-83
2022/05/22 03:10:04;;;;;;;20.40;19.60;;;14.90;47.90;;;;;;5010482;28;20464;-83
2022/05/22 03:12:30;;;;;;;20.03;19.00;;;14.90;47.00;;;;;;5010189;28;20926;-83
2022/05/22 03:14:57;;;;;;;20.23;19.20;;;15.00;46.80;;;;;;5009113;28;20419;-83
2022/05/22 03:17:24;;;;;;;20.53;19.50;;;15.00;46.90;;;;;;5009710;28;20174;-82
2022/05/22 03:19:50;;;;;;;20.40;19.50;;;15.00;46.00;;;;;;5009864;28;20496;-83
2022/05/22 03:22:16;;;;;;;19.97;19.17;;;14.90;46.30;;;;;;5009646;28;20818;-82
2022/05/22 03:24:42;;;;;;;19.90;19.00;;;14.90;45.90;;;;;;5009318;28;20425;-83
2022/05/22 03:27:11;;;;;;;20.40;19.57;;;14.90;45.90;;;;;;5009644;28;20441;-83
2022/05/22 03:29:38;;;;;;;19.87;19.07;;;14.90;45.90;;;;;;5009017;28;20212;-83
2022/05/22 03:32:04;;;;;;;19.30;18.50;;;14.80;46.40;;;;;;5009450;28;20428;-83
2022/05/22 03:34:30;;;;;;;19.70;18.90;;;14.80;46.10;;;;;;5009188;28;20471;-83
2022/05/22 03:36:56;;;;;;;19.77;18.77;;;14.80;46.40;;;;;;5009796;28;20409;-83
2022/05/22 03:39:22;;;;;;;19.30;18.60;;;14.80;45.90;;;;;;5009527;28;20574;-83
2022/05/22 03:41:48;;;;;;;19.70;18.90;;;14.80;46.50;;;;;;4994310;28;20555;-83
2022/05/22 03:44:13;;;;;;;19.50;18.60;;;14.70;45.70;;;;;;5009161;28;20188;-83
2022/05/22 03:46:41;;;;;;;20.60;19.60;;;14.70;46.20;;;;;;5008925;28;20421;-83
2022/05/22 03:49:07;;;;;;;21.40;20.40;;;14.70;46.80;;;;;;5009363;28;20261;-83
2022/05/22 03:51:34;;;;;;;19.37;18.57;;;14.70;46.80;;;;;;5009338;28;20859;-83
2022/05/22 03:54:00;;;;;;;20.40;19.20;;;14.60;46.20;;;;;;5009661;28;20182;-83
2022/05/22 03:56:26;;;;;;;20.10;19.20;;;14.60;47.10;;;;;;5008718;28;20410;-83
2022/05/22 03:58:51;;;;;;;19.10;18.20;;;14.60;46.90;;;;;;5009042;28;20452;-83
2022/05/22 04:01:17;;;;;;;19.50;18.80;;;14.60;47.10;;;;;;5009496;28;20421;-83
2022/05/22 04:03:42;;;;;;;19.87;19.07;;;14.60;46.40;;;;;;5009382;28;20185;-83
2022/05/22 04:06:10;;;;;;;20.13;19.33;;;14.60;46.40;;;;;;5008997;28;20173;-83
2022/05/22 04:08:36;;;;;;;21.43;20.53;;;14.80;45.30;;;;;;5009087;28;20182;-83
2022/05/22 04:11:14;;;;;;;19.10;18.40;;;14.80;45.40;;;;;;5009466;28;20491;-83
2022/05/22 04:13:40;;;;;;;21.03;20.07;;;14.80;45.80;;;;;;5008483;28;20409;-83
2022/05/22 04:16:06;;;;;;;20.70;19.67;;;14.80;45.30;;;;;;5009126;28;20905;-83
2022/05/22 04:18:32;;;;;;;20.20;19.40;;;14.90;45.40;;;;;;5009381;28;20405;-83
2022/05/22 04:20:58;;;;;;;20.03;18.60;;;14.90;45.90;;;;;;5009239;28;20424;-83
2022/05/22 04:26:08;;;;;;;20.60;19.70;;;15.00;45.30;;;;;;4993098;28;20967;-83
2022/05/22 04:28:34;;;;;;;20.50;19.70;;;14.90;45.90;;;;;;5009294;28;20792;-83
2022/05/22 04:31:03;;;;;;;20.17;19.33;;;14.80;45.80;;;;;;5009182;28;20465;-83
2022/05/22 04:33:30;;;;;;;20.13;19.33;;;14.80;46.40;;;;;;5008444;28;20496;-83
2022/05/22 04:35:56;;;;;;;19.60;18.80;;;14.80;46.30;;;;;;5008674;28;20421;-83
2022/05/22 04:38:22;;;;;;;20.70;19.80;;;14.80;46.50;;;;;;5008419;28;20413;-83
2022/05/22 04:41:01;;;;;;;20.57;19.57;;;14.80;46.30;;;;;;5007386;28;20779;-83
2022/05/22 04:43:29;;;;;;;21.73;20.40;;;14.90;46.40;;;;;;5008888;28;20839;-83
2022/05/22 04:45:55;;;;;;;21.13;20.23;;;14.90;45.90;;;;;;5008578;28;20794;-83
2022/05/22 04:48:23;;;;;;;20.00;19.20;;;15.00;46.00;;;;;;5008990;28;20512;-83
2022/05/22 04:50:50;;;;;;;20.10;19.30;;;15.00;45.70;;;;;;5008765;28;20538;-83
2022/05/22 04:53:18;;;;;;;20.27;19.43;;;15.00;46.00;;;;;;5008756;28;20424;-83
2022/05/22 04:55:44;;;;;;;20.80;19.90;;;15.00;45.50;;;;;;5008318;28;20413;-84
2022/05/22 04:58:11;;;;;;;22.30;20.60;;;15.10;45.30;;;;;;5008743;28;20479;-84
2022/05/22 05:00:37;;;;;;;21.07;19.77;;;15.10;44.60;;;;;;5007829;28;20205;-84
2022/05/22 05:03:02;;;;;;;20.70;19.80;;;15.10;45.40;;;;;;5008512;28;20417;-84
2022/05/22 05:05:28;;;;;;;19.93;19.13;;;15.10;45.40;;;;;;5008270;28;20181;-84
2022/05/22 05:07:54;;;;;;;20.90;19.97;;;15.10;46.00;;;;;;5007784;28;20181;-82
2022/05/22 05:10:20;;;;;;;20.80;19.90;;;15.20;44.90;;;;;;5008518;28;20486;-84
2022/05/22 05:12:46;;;;;;;21.17;20.07;;;15.20;44.30;;;;;;4993391;28;20494;-84
2022/05/22 05:15:16;;;;;;;19.33;18.53;;;15.30;43.60;;;;;;5007032;28;20778;-84
2022/05/22 05:17:42;;;;;;;20.97;20.07;;;15.30;43.60;;;;;;5008455;28;20444;-83
2022/05/22 05:20:18;;;;;;;20.40;19.40;;;15.40;43.70;;;;;;5008714;28;20964;-84
2022/05/22 05:22:43;;;;;;;19.83;19.03;;;15.30;43.70;;;;;;5007597;28;20516;-84
2022/05/22 05:25:11;;;;;;;20.40;19.50;;;15.30;45.00;;;;;;5008299;28;20500;-83
2022/05/22 05:27:37;;;;;;;21.73;20.50;;;15.20;44.50;;;;;;5007968;28;20472;-82
2022/05/22 05:30:04;;;;;;;20.63;19.73;;;15.30;44.50;;;;;;5008312;28;20496;-82
2022/05/22 05:32:32;;;;;;;21.20;20.10;;;15.40;44.50;;;;;;5009039;28;20178;-84
2022/05/22 05:35:05;;;;;;;19.50;18.80;;;15.50;43.40;;;;;;5008727;28;20792;-82
2022/05/22 05:37:31;;;;;;;19.47;18.57;;;15.50;42.90;;;;;;5008242;28;20447;-83
2022/05/22 05:39:57;;;;;;;20.47;19.67;;;15.50;43.70;;;;;;5008149;28;20930;-83
2022/05/22 05:42:23;;;;;;;20.17;19.27;;;15.50;43.70;;;;;;5007976;28;20178;-83
2022/05/22 05:44:50;;;;;;;20.77;19.67;;;15.60;43.50;;;;;;5007908;28;20433;-83
2022/05/22 05:47:16;;;;;;;19.63;18.77;;;15.60;43.20;;;;;;5008428;28;20428;-83
2022/05/22 05:49:41;;;;;;;20.07;19.27;;;15.60;43.80;;;;;;5008213;28;20465;-83
2022/05/22 05:52:07;;;;;;;20.13;19.33;;;15.70;43.30;;;;;;5007761;28;20418;-83
2022/05/22 05:54:33;;;;;;;20.60;19.70;;;15.80;42.80;;;;;;5006755;28;20229;-83
2022/05/22 05:56:59;;;;;;;19.90;19.20;;;15.90;42.60;;;;;;5008055;28;20638;-83
2022/05/22 05:59:26;;;;;;;20.60;19.70;;;16.00;43.20;;;;;;5008145;28;20471;-83
2022/05/22 06:01:52;;;;;;;20.70;19.80;;;16.10;42.50;;;;;;5008213;28;20178;-83
2022/05/22 06:04:18;;;;;;;20.17;19.37;;;16.20;42.10;;;;;;5007017;28;20436;-84
2022/05/22 06:06:44;;;;;;;22.47;21.27;;;16.20;41.60;;;;;;5008068;28;20266;-83
2022/05/22 06:09:10;;;;;;;20.70;19.80;;;16.30;40.90;;;;;;5008239;28;20599;-83
2022/05/22 06:11:35;;;;;;;19.50;18.63;;;16.30;41.20;;;;;;5007111;28;20456;-83
2022/05/22 06:14:01;;;;;;;20.67;19.80;;;16.40;41.10;;;;;;5007794;28;20170;-83
2022/05/22 06:16:27;;;;;;;20.70;19.80;;;16.40;40.60;;;;;;5007430;28;20285;-83
2022/05/22 06:18:53;;;;;;;20.50;19.50;;;16.50;40.20;;;;;;5009743;28;20174;-83
2022/05/22 06:21:21;;;;;;;19.97;18.77;;;16.50;40.00;;;;;;5011549;28;20185;-83
2022/05/22 06:23:47;;;;;;;19.13;18.43;;;16.50;40.90;;;;;;5010400;28;20702;-83
2022/05/22 06:26:17;;;;;;;20.00;19.20;;;16.60;40.00;;;;;;5010446;28;20445;-83
2022/05/22 06:28:43;;;;;;;19.97;19.17;;;16.60;40.50;;;;;;5010544;28;20665;-83
2022/05/22 06:31:09;;;;;;;20.30;19.40;;;16.70;39.60;;;;;;5010975;28;20607;-83
2022/05/22 06:33:35;;;;;;;19.50;18.60;;;16.80;39.80;;;;;;5010918;28;20444;-83
2022/05/22 06:36:13;;;;;;;21.13;20.13;;;16.80;39.10;;;;;;5010700;28;21017;-83
2022/05/22 06:41:25;;;;;;;19.53;18.83;;;17.10;38.70;;;;;;4995968;28;20448;-83
2022/05/22 06:43:52;;;;;;;19.77;18.90;;;17.10;38.20;;;;;;5010505;28;20781;-83
2022/05/22 06:46:30;;;;;;;19.73;18.80;;;17.20;37.80;;;;;;5010036;28;20456;-83
2022/05/22 06:48:57;;;;;;;19.60;18.80;;;17.20;36.80;;;;;;5010817;28;20425;-83
2022/05/22 06:51:22;;;;;;;19.13;18.27;;;17.20;36.80;;;;;;5010616;28;20465;-83
2022/05/22 06:53:48;;;;;;;18.97;18.27;;;17.30;38.00;;;;;;5010167;28;20425;-83
2022/05/22 06:56:14;;;;;;;19.50;18.67;;;17.30;38.10;;;;;;5009837;28;20178;-83
2022/05/22 06:58:40;;;;;;;19.03;18.20;;;17.40;37.50;;;;;;5010053;28;20182;-83
2022/05/22 07:01:05;;;;;;;19.30;18.23;;;17.50;36.70;;;;;;5010157;28;20209;-83
2022/05/22 07:03:31;;;;;;;19.67;18.87;;;17.60;36.10;;;;;;4992840;28;20421;-83
2022/05/22 07:05:57;;;;;;;18.80;18.10;;;17.60;35.90;;;;;;4994689;28;20209;-83
2022/05/22 07:08:22;;;;;;;20.20;19.20;;;17.70;35.80;;;;;;5009863;28;20193;-83
2022/05/22 07:13:32;;;;;;;19.20;18.50;;;17.90;35.40;;;;;;4995076;28;20189;-82
2022/05/22 07:16:04;;;;;;;19.60;18.80;;;17.90;35.20;;;;;;5009633;28;20417;-81
2022/05/22 07:18:30;;;;;;;18.83;18.03;;;18.20;34.90;;;;;;5009959;28;20269;-81
2022/05/22 07:20:56;;;;;;;20.40;19.10;;;18.40;34.90;;;;;;5010104;28;20595;-81
2022/05/22 07:23:22;;;;;;;19.50;18.57;;;18.50;34.70;;;;;;5009734;28;20422;-82
2022/05/22 07:25:48;;;;;;;19.50;18.80;;;18.80;33.10;;;;;;5009195;28;20284;-81
2022/05/22 07:28:14;;;;;;;19.77;18.97;;;18.70;33.80;;;;;;5009503;28;20189;-81
2022/05/22 07:30:39;;;;;;;18.40;17.60;;;18.70;33.40;;;;;;5008566;28;20898;-81
2022/05/22 07:33:05;;;;;;;18.70;18.00;;;18.80;33.10;;;;;;4992964;28;20476;-81
2022/05/22 07:35:31;;;;;;;19.83;18.70;;;18.90;32.60;;;;;;5009035;28;20576;-81
2022/05/22 07:37:57;;;;;;;18.83;18.13;;;18.80;33.90;;;;;;5009415;28;20209;-81
2022/05/22 07:40:23;;;;;;;19.07;18.37;;;18.80;33.50;;;;;;5009282;28;20621;-81
2022/05/22 07:42:48;;;;;;;19.40;18.60;;;18.90;32.40;;;;;;5009221;28;20524;-81
2022/05/22 07:45:15;;;;;;;19.17;18.47;;;18.90;33.10;;;;;;5009034;28;20219;-81
2022/05/22 07:47:42;;;;;;;19.90;18.80;;;18.90;33.50;;;;;;5009217;28;20631;-81
2022/05/22 07:50:17;;;;;;;19.63;18.83;;;18.90;33.90;;;;;;5008911;28;20469;-81
2022/05/22 07:52:46;;;;;;;19.07;18.37;;;18.80;32.80;;;;;;5008817;28;20475;-81
2022/05/22 07:55:17;;;;;;;19.77;18.87;;;18.90;33.70;;;;;;5008719;28;20421;-82
2022/05/22 07:57:44;;;;;;;19.63;18.73;;;18.90;34.30;;;;;;5008927;28;20453;-81
2022/05/22 08:00:12;;;;;;;19.70;18.73;;;19.00;33.20;;;;;;5008904;28;20425;-82
2022/05/22 08:02:39;;;;;;;19.13;18.43;;;19.00;32.90;;;;;;5008875;28;20528;-81
2022/05/22 08:05:06;;;;;;;19.30;18.40;;;19.10;33.20;;;;;;4993250;28;20420;-82
2022/05/22 08:07:33;;;;;;;18.50;17.80;;;19.20;33.40;;;;;;5008583;28;20460;-81
2022/05/22 08:09:59;;;;;;;17.90;17.30;;;19.20;32.00;;;;;;5008855;28;20842;-81
2022/05/22 08:12:25;;;;;;;18.80;18.00;;;19.30;32.10;;;;;;5008622;28;20417;-81
2022/05/22 08:14:51;;;;;;;18.07;17.37;;;19.30;32.40;;;;;;5008408;28;20417;-82
2022/05/22 08:17:21;;;;;;;18.27;17.37;;;19.40;31.40;;;;;;5008783;28;20461;-81
2022/05/22 08:19:48;;;;;;;19.90;18.40;;;19.50;31.70;;;;;;5008517;28;20792;-82
2022/05/22 08:22:15;;;;;;;18.87;18.13;;;19.50;32.00;;;;;;5008662;28;20424;-82
2022/05/22 08:24:41;;;;;;;18.93;18.03;;;19.50;30.70;;;;;;5008344;28;20886;-82
2022/05/22 08:27:06;;;;;;;20.87;19.80;;;19.60;30.50;;;;;;5008499;28;20576;-82
2022/05/22 08:29:32;;;;;;;19.30;18.33;;;19.60;30.60;;;;;;5008280;28;20209;-82
2022/05/22 08:31:58;;;;;;;18.50;17.70;;;19.80;31.00;;;;;;5008438;28;20178;-81
2022/05/22 08:34:23;;;;;;;18.03;17.33;;;19.80;31.00;;;;;;5008049;28;20181;-81
2022/05/22 08:36:51;;;;;;;18.27;17.47;;;19.90;29.50;;;;;;5008317;28;20692;-82
2022/05/22 08:39:17;;;;;;;17.60;16.90;;;19.90;30.00;;;;;;5008234;28;20643;-82
2022/05/22 08:41:51;;;;;;;18.67;17.87;;;19.90;29.30;;;;;;5008299;28;20414;-81
2022/05/22 08:44:31;;;;;;;17.60;16.70;;;19.90;29.90;;;;;;5008192;28;20452;-82
2022/05/22 08:47:01;;;;;;;18.83;18.03;;;20.00;29.40;;;;;;5008487;28;20858;-82
2022/05/22 08:49:58;;;;;;;18.63;17.83;;;20.00;29.70;;;;;;4991939;28;20471;-82
2022/05/22 08:52:30;;;;;;;17.87;17.17;;;19.90;29.00;;;;;;4991717;28;20428;-81
2022/05/22 08:55:05;;;;;;;19.37;18.17;;;19.90;29.90;;;;;;4992469;28;20409;-81
2022/05/22 09:00:27;;;;;;;17.70;17.07;;;20.10;29.80;;;;;;4993370;28;20544;-81
2022/05/22 09:03:05;;;;;;;18.53;17.70;;;20.00;29.40;;;;;;5007808;28;20421;-83
2022/05/22 09:05:32;;;;;;;18.33;17.57;;;20.10;29.10;;;;;;5007716;28;20491;-84
2022/05/22 09:08:06;;;;;;;18.03;17.33;;;20.10;29.40;;;;;;5008145;28;20421;-84
2022/05/22 09:10:43;;;;;;;18.10;17.40;;;20.10;29.80;;;;;;4991548;28;20465;-84
2022/05/22 09:13:08;;;;;;;18.20;17.50;;;20.10;29.10;;;;;;5007882;28;20452;-84
2022/05/22 09:15:49;;;;;;;18.03;17.33;;;20.10;29.60;;;;;;4991010;28;20464;-84
2022/05/22 09:18:15;;;;;;;17.53;16.87;;;20.20;30.00;;;;;;5007797;28;20224;-84
2022/05/22 09:20:41;;;;;;;19.30;18.50;;;20.10;29.00;;;;;;4991207;28;20429;-83
2022/05/22 09:23:26;;;;;;;19.43;18.13;;;20.20;29.40;;;;;;4991337;28;20186;-84
2022/05/22 09:26:08;;;;;;;18.70;17.90;;;20.50;28.60;;;;;;4990930;28;20533;-84
2022/05/22 09:28:43;;;;;;;18.03;17.33;;;20.80;28.00;;;;;;5007645;28;21057;-84
2022/05/22 09:31:36;;;;;;;18.30;17.50;;;20.80;28.00;;;;;;4991445;28;20464;-84
2022/05/22 09:34:19;;;;;;;17.67;16.97;;;20.90;28.20;;;;;;5007607;28;20421;-84
2022/05/22 09:36:56;;;;;;;17.57;16.97;;;20.80;28.10;;;;;;5007842;28;20475;-84
2022/05/22 09:40:13;;;;;;;18.40;17.50;;;20.80;28.00;;;;;;4991475;28;20491;-84
2022/05/22 09:43:16;;;;;;;17.90;17.27;;;20.90;27.50;;;;;;4985521;28;20421;-84
2022/05/22 09:46:00;;;;;;;16.67;15.97;;;20.80;27.60;;;;;;4991204;28;20429;-83
2022/05/22 09:48:56;;;;;;;17.90;17.27;;;20.80;27.60;;;;;;5008033;28;20413;-84
2022/05/22 09:51:31;;;;;;;17.33;16.63;;;20.90;27.60;;;;;;4991269;28;20814;-84
2022/05/22 09:54:17;;;;;;;17.37;16.67;;;20.90;27.90;;;;;;4993533;28;20427;-84
2022/05/22 09:56:58;;;;;;;18.10;17.40;;;21.00;27.10;;;;;;5011191;28;20417;-84
2022/05/22 09:59:59;;;;;;;17.70;17.00;;;21.00;27.60;;;;;;4994915;28;20476;-84
2022/05/22 10:02:42;;;;;;;17.97;17.17;;;21.20;27.70;;;;;;5002065;28;20419;-84
2022/05/22 10:05:14;;;;;;;17.73;17.10;;;21.20;26.70;;;;;;4994809;28;20479;-84
2022/05/22 10:08:15;;;;;;;18.70;17.90;;;21.30;27.10;;;;;;4994864;28;20424;-84
2022/05/22 10:11:01;;;;;;;17.80;17.10;;;21.40;26.70;;;;;;5010946;28;20469;-84
2022/05/22 10:13:34;;;;;;;18.67;17.60;;;21.60;26.10;;;;;;4994524;28;20428;-85
2022/05/22 10:16:18;;;;;;;18.03;17.40;;;21.70;26.40;;;;;;5010575;28;20508;-84
2022/05/22 10:19:24;;;;;;;18.20;17.50;;;21.60;25.00;;;;;;4994559;28;20417;-84
2022/05/22 10:22:17;;;;;;;17.30;16.70;;;21.60;25.50;;;;;;5010875;28;20448;-84
2022/05/22 10:24:55;;;;;;;18.20;17.50;;;21.70;25.40;;;;;;4994113;28;20421;-84
2022/05/22 10:27:39;;;;;;;17.50;16.90;;;21.70;25.60;;;;;;4994447;28;20440;-84
2022/05/22 10:30:40;;;;;;;18.40;17.50;;;21.90;24.90;;;;;;4994531;28;20571;-84
2022/05/22 10:33:18;;;;;;;19.30;18.50;;;22.00;25.00;;;;;;5010716;28;21113;-84
2022/05/22 10:36:10;;;;;;;18.50;17.80;;;22.00;25.10;;;;;;5010278;28;20413;-84
2022/05/22 10:38:52;;;;;;;19.37;18.47;;;22.00;25.10;;;;;;5010909;28;20825;-87
2022/05/22 10:44:13;;;;;;;19.03;18.23;;;22.00;25.60;;;;;;4995639;28;20456;-87
2022/05/22 10:47:05;;;;;;;18.73;17.83;;;22.10;25.50;;;;;;5009860;28;20409;-87
2022/05/22 10:49:43;;;;;;;18.77;18.07;;;22.00;25.10;;;;;;4992160;28;20555;-87
2022/05/22 10:52:21;;;;;;;18.40;17.70;;;22.10;25.20;;;;;;5010107;28;20495;-87
2022/05/22 10:54:54;;;;;;;18.63;17.70;;;22.20;25.20;;;;;;5009832;28;20479;-87
2022/05/22 10:57:21;;;;;;;18.87;18.00;;;22.40;25.20;;;;;;5010281;28;20445;-87
2022/05/22 10:59:48;;;;;;;18.07;17.23;;;22.30;23.30;;;;;;5010263;28;20516;-87
2022/05/22 11:02:36;;;;;;;18.27;17.57;;;22.30;23.80;;;;;;5010163;28;20418;-87
2022/05/22 11:05:13;;;;;;;17.60;17.00;;;22.50;23.40;;;;;;5008736;28;20432;-87
2022/05/22 11:07:47;;;;;;;18.33;17.30;;;22.60;24.20;;;;;;5009994;28;20520;-87
2022/05/22 11:10:21;;;;;;;18.60;17.90;;;22.70;23.90;;;;;;5010204;28;21035;-87
2022/05/22 11:13:01;;;;;;;18.70;17.90;;;22.70;23.90;;;;;;5009841;28;20913;-87
2022/05/22 11:15:33;;;;;;;18.60;17.90;;;22.80;23.80;;;;;;4993044;28;20457;-87
2022/05/22 11:18:12;;;;;;;17.70;17.00;;;22.90;23.70;;;;;;5009800;28;20454;-87
2022/05/22 11:20:46;;;;;;;18.37;17.67;;;22.90;24.20;;;;;;5009719;28;20770;-87
2022/05/22 11:23:35;;;;;;;18.77;17.97;;;23.00;24.40;;;;;;5009617;28;20418;-87
2022/05/22 11:26:08;;;;;;;18.10;17.40;;;23.00;23.70;;;;;;5009148;28;20437;-87
2022/05/22 11:28:33;;;;;;;17.93;17.23;;;23.00;23.70;;;;;;4993197;28;20432;-87
2022/05/22 11:31:21;;;;;;;18.10;17.20;;;23.10;23.60;;;;;;4993187;28;20465;-87
2022/05/22 11:34:14;;;;;;;17.87;17.07;;;23.10;23.30;;;;;;4993094;28;20182;-86
2022/05/22 11:36:52;;;;;;;17.73;17.13;;;23.00;23.80;;;;;;4992886;28;20925;-87
2022/05/22 11:39:42;;;;;;;18.20;17.30;;;23.00;23.70;;;;;;5009471;28;20420;-87
2022/05/22 11:42:17;;;;;;;17.67;16.70;;;23.40;22.70;;;;;;4992955;28;20409;-87
2022/05/22 11:45:24;;;;;;;18.00;17.30;;;23.60;22.90;;;;;;4992636;28;20515;-87
2022/05/22 11:48:02;;;;;;;18.90;17.93;;;23.60;22.30;;;;;;5009336;28;20413;-87
2022/05/22 11:50:37;;;;;;;17.93;17.23;;;23.30;21.90;;;;;;4994060;28;20464;-86
2022/05/22 11:53:21;;;;;;;18.63;17.93;;;23.20;23.20;;;;;;4992646;28;20448;-87
2022/05/22 11:55:59;;;;;;;18.13;17.43;;;23.20;22.40;;;;;;4993623;28;20441;-87
2022/05/22 11:58:45;;;;;;;18.50;17.80;;;23.30;21.90;;;;;;4992675;28;20413;-87
2022/05/22 12:01:23;;;;;;;18.00;17.10;;;23.30;22.60;;;;;;4992495;28;20421;-87
2022/05/22 12:04:31;;;;;;;17.87;17.07;;;23.30;22.40;;;;;;5009233;28;20840;-86
2022/05/22 12:07:03;;;;;;;17.40;16.80;;;23.10;21.70;;;;;;5009230;28;20440;-87
2022/05/22 12:09:31;;;;;;;18.83;17.60;;;23.10;22.50;;;;;;4992364;28;20839;-86
2022/05/22 12:12:09;;;;;;;17.80;17.10;;;23.20;22.60;;;;;;4992373;28;20432;-86
2022/05/22 12:15:17;;;;;;;17.27;16.47;;;23.30;22.30;;;;;;4992108;28;20464;-86
2022/05/22 12:18:04;;;;;;;17.40;16.70;;;23.40;22.40;;;;;;4971683;28;20426;-86
2022/05/22 12:20:55;;;;;;;17.20;16.40;;;23.30;21.80;;;;;;5007822;28;20485;-87
2022/05/22 12:23:29;;;;;;;16.83;16.23;;;23.40;22.10;;;;;;5008521;28;20467;-86
2022/05/22 12:26:03;;;;;;;18.57;17.87;;;23.30;22.40;;;;;;5008147;28;20447;-87
2022/05/22 12:28:36;;;;;;;17.90;17.20;;;23.40;21.10;;;;;;5008451;28;20881;-87
2022/05/22 12:31:25;;;;;;;18.37;17.63;;;23.40;21.40;;;;;;5008386;28;20828;-86
2022/05/22 12:33:51;;;;;;;18.23;17.43;;;23.50;22.80;;;;;;5008327;28;20508;-87
2022/05/22 12:36:26;;;;;;;18.17;17.40;;;23.60;22.60;;;;;;5008004;28;20445;-87
2022/05/22 12:39:13;;;;;;;17.37;16.77;;;23.70;21.60;;;;;;5008322;28;20417;-87
2022/05/22 12:42:06;;;;;;;17.13;16.53;;;23.80;21.70;;;;;;5008277;28;20420;-87
2022/05/22 12:44:33;;;;;;;16.83;16.17;;;23.80;20.90;;;;;;4991573;28;20794;-87
2022/05/22 12:46:58;;;;;;;17.67;16.80;;;23.80;21.20;;;;;;5008204;28;20425;-87
2022/05/22 12:49:33;;;;;;;17.43;16.83;;;23.80;21.10;;;;;;5008222;28;20428;-87
2022/05/22 12:52:27;;;;;;;16.90;16.20;;;23.80;21.50;;;;;;5008251;28;20184;-87
2022/05/22 12:55:05;;;;;;;17.23;16.63;;;23.80;22.90;;;;;;5007740;28;20770;-87
2022/05/22 12:57:30;;;;;;;17.30;16.70;;;23.80;22.60;;;;;;5007959;28;20405;-87
2022/05/22 13:00:15;;;;;;;17.13;16.43;;;23.90;22.30;;;;;;5008062;28;20413;-87
2022/05/22 13:02:42;;;;;;;16.20;15.70;;;23.90;21.00;;;;;;5007845;28;20186;-87
2022/05/22 13:05:24;;;;;;;16.30;15.70;;;23.90;20.50;;;;;;5007510;28;20424;-87